sensor_id;sensor_type;location;lat;lon;timestamp;pressure;altitude;pressure_sealevel;temperature;humidity
75972;BME280;64651;47.540;19.088;2022-11-20T00:01:51;100228.19;;;2.13;77.39
75972;BME280;64651;47.540;19.088;2022-11-20T00:06:53;100209.38;;;2.00;77.23
75972;BME280;64651;47.540;19.088;2022-11-20T00:11:55;100202.72;;;1.96;77.58
75972;BME280;64651;47.540;19.088;2022-11-20T00:16:57;100191.12;;;2.07;76.97
75972;BME280;64651;47.540;19.088;2022-11-20T00:21:59;100203.56;;;1.96;77.62
75972;BME280;64651;47.540;19.088;2022-11-20T00:27:01;100191.44;;;1.99;77.71
75972;BME280;64651;47.540;19.088;2022-11-20T00:32:04;100199.97;;;1.84;77.66
75972;BME280;64651;47.540;19.088;2022-11-20T00:37:06;100205.25;;;1.79;78.06
75972;BME280;64651;47.540;19.088;2022-11-20T00:42:08;100204.47;;;1.90;78.03
75972;BME280;64651;47.540;19.088;2022-11-20T00:47:10;100232.97;;;1.99;77.81
75972;BME280;64651;47.540;19.088;2022-11-20T00:52:12;100227.94;;;2.15;77.99
75972;BME280;64651;47.540;19.088;2022-11-20T00:57:14;100208.06;;;2.02;78.05
75972;BME280;64651;47.540;19.088;2022-11-20T01:02:16;100199.97;;;2.14;77.99
75972;BME280;64651;47.540;19.088;2022-11-20T01:07:18;100204.47;;;1.90;79.15
75972;BME280;64651;47.540;19.088;2022-11-20T01:12:20;100201.62;;;1.85;79.71
75972;BME280;64651;47.540;19.088;2022-11-20T01:17:22;100208.16;;;1.96;79.77
75972;BME280;64651;47.540;19.088;2022-11-20T01:22:25;100206.97;;;1.74;80.82
75972;BME280;64651;47.540;19.088;2022-11-20T01:27:27;100213.53;;;1.66;81.64
75972;BME280;64651;47.540;19.088;2022-11-20T01:32:29;100218.38;;;1.64;82.05
75972;BME280;64651;47.540;19.088;2022-11-20T01:37:31;100207.19;;;1.72;nan
75972;BME280;64651;47.540;19.088;2022-11-20T01:42:33;100196.81;;;1.69;82.06
75972;BME280;64651;47.540;19.088;2022-11-20T01:48:08;100174.78;;;1.77;82.24
75972;BME280;64651;47.540;19.088;2022-11-20T01:53:14;100183.94;;;1.83;82.27
75972;BME280;64651;47.540;19.088;2022-11-20T01:58:22;100176.25;;;1.80;82.48
75972;BME280;64651;47.540;19.088;2022-11-20T02:03:26;100166.22;;;1.80;82.40
75972;BME280;64651;47.540;19.088;2022-11-20T02:08:30;100185.72;;;1.89;82.62
75972;BME280;64651;47.540;19.088;2022-11-20T02:13:33;100154.47;;;1.86;82.55
75972;BME280;64651;47.540;19.088;2022-11-20T02:18:46;100166.28;;;1.92;82.53
75972;BME280;64651;47.540;19.088;2022-11-20T02:29:16;100176.44;;;1.96;82.53
75972;BME280;64651;47.540;19.088;2022-11-20T02:34:21;100184.34;;;1.98;82.74
75972;BME280;64651;47.540;19.088;2022-11-20T02:39:24;100168.69;;;2.00;82.74
75972;BME280;64651;47.540;19.088;2022-11-20T02:44:27;100153.38;;;2.06;82.61
75972;BME280;64651;47.540;19.088;2022-11-20T02:49:29;100151.94;;;2.03;82.56
75972;BME280;64651;47.540;19.088;2022-11-20T02:54:31;100148.13;;;1.92;82.54
75972;BME280;64651;47.540;19.088;2022-11-20T02:59:33;100148.38;;;2.02;82.02
75972;BME280;64651;47.540;19.088;2022-11-20T03:04:35;100152.16;;;2.01;81.88
75972;BME280;64651;47.540;19.088;2022-11-20T03:09:37;100135.28;;;1.99;81.66
75972;BME280;64651;47.540;19.088;2022-11-20T03:14:39;100128.94;;;2.06;81.51
75972;BME280;64651;47.540;19.088;2022-11-20T03:19:42;100143.09;;;2.08;80.78
75972;BME280;64651;47.540;19.088;2022-11-20T03:24:44;100130.72;;;2.12;80.44
75972;BME280;64651;47.540;19.088;2022-11-20T03:29:46;100150.78;;;2.11;80.05
75972;BME280;64651;47.540;19.088;2022-11-20T03:34:48;100158.78;;;2.06;80.25
75972;BME280;64651;47.540;19.088;2022-11-20T03:39:50;100169.41;;;2.07;80.03
75972;BME280;64651;47.540;19.088;2022-11-20T03:44:52;100150.91;;;2.16;80.29
75972;BME280;64651;47.540;19.088;2022-11-20T03:49:54;100134.59;;;2.04;80.37
75972;BME280;64651;47.540;19.088;2022-11-20T03:54:56;100139.31;;;2.09;80.32
75972;BME280;64651;47.540;19.088;2022-11-20T03:59:58;100139.56;;;2.07;80.02
75972;BME280;64651;47.540;19.088;2022-11-20T04:05:01;100124.47;;;2.11;80.05
75972;BME280;64651;47.540;19.088;2022-11-20T04:10:03;100144.88;;;2.14;79.98
75972;BME280;64651;47.540;19.088;2022-11-20T04:15:05;100140.97;;;2.10;80.34
75972;BME280;64651;47.540;19.088;2022-11-20T04:20:08;100133.16;;;2.01;80.53
75972;BME280;64651;47.540;19.088;2022-11-20T04:25:10;100123.22;;;1.95;81.02
75972;BME280;64651;47.540;19.088;2022-11-20T04:30:12;100110.84;;;1.88;81.50
75972;BME280;64651;47.540;19.088;2022-11-20T04:35:14;100099.53;;;2.02;81.39
75972;BME280;64651;47.540;19.088;2022-11-20T04:40:16;100090.03;;;2.12;81.09
75972;BME280;64651;47.540;19.088;2022-11-20T04:45:18;100109.13;;;2.05;81.22
75972;BME280;64651;47.540;19.088;2022-11-20T04:50:20;100109.28;;;2.22;81.12
75972;BME280;64651;47.540;19.088;2022-11-20T04:55:23;100105.03;;;2.26;80.61
75972;BME280;64651;47.540;19.088;2022-11-20T05:00:25;100086.62;;;2.28;80.44
75972;BME280;64651;47.540;19.088;2022-11-20T05:05:27;100062.91;;;2.23;80.36
75972;BME280;64651;47.540;19.088;2022-11-20T05:10:29;100077.09;;;2.25;80.40
75972;BME280;64651;47.540;19.088;2022-11-20T05:15:32;100082.88;;;2.29;80.31
75972;BME280;64651;47.540;19.088;2022-11-20T05:20:34;100098.56;;;2.27;79.90
75972;BME280;64651;47.540;19.088;2022-11-20T05:25:38;100087.38;;;2.35;79.48
75972;BME280;64651;47.540;19.088;2022-11-20T05:30:40;100075.06;;;2.32;79.80
75972;BME280;64651;47.540;19.088;2022-11-20T05:35:42;100059.72;;;2.38;80.26
75972;BME280;64651;47.540;19.088;2022-11-20T05:40:44;100049.56;;;2.22;80.59
75972;BME280;64651;47.540;19.088;2022-11-20T05:45:53;100052.41;;;2.27;80.83
75972;BME280;64651;47.540;19.088;2022-11-20T05:51:00;100059.38;;;2.23;81.09
75972;BME280;64651;47.540;19.088;2022-11-20T05:56:05;100072.13;;;2.34;81.19
75972;BME280;64651;47.540;19.088;2022-11-20T06:01:11;100071.78;;;2.30;80.63
75972;BME280;64651;47.540;19.088;2022-11-20T06:06:14;100093.50;;;2.30;80.69
75972;BME280;64651;47.540;19.088;2022-11-20T06:11:17;100089.47;;;2.21;81.07
75972;BME280;64651;47.540;19.088;2022-11-20T06:16:19;100094.19;;;2.26;81.09
75972;BME280;64651;47.540;19.088;2022-11-20T06:21:22;100107.28;;;2.29;81.16
75972;BME280;64651;47.540;19.088;2022-11-20T06:26:26;100074.25;;;2.32;80.33
75972;BME280;64651;47.540;19.088;2022-11-20T06:31:30;100072.03;;;2.40;80.06
75972;BME280;64651;47.540;19.088;2022-11-20T06:36:34;100101.78;;;2.47;79.83
75972;BME280;64651;47.540;19.088;2022-11-20T06:41:36;100101.06;;;2.40;79.25
75972;BME280;64651;47.540;19.088;2022-11-20T06:46:38;100114.31;;;2.48;79.19
75972;BME280;64651;47.540;19.088;2022-11-20T06:51:41;100119.63;;;2.55;78.69
75972;BME280;64651;47.540;19.088;2022-11-20T06:56:47;100129.06;;;2.64;78.50
75972;BME280;64651;47.540;19.088;2022-11-20T07:01:49;100119.41;;;2.68;77.69
75972;BME280;64651;47.540;19.088;2022-11-20T07:06:51;100115.37;;;2.82;77.46
75972;BME280;64651;47.540;19.088;2022-11-20T07:11:53;100106.06;;;3.01;77.29
75972;BME280;64651;47.540;19.088;2022-11-20T07:16:55;100108.84;;;3.18;77.39
75972;BME280;64651;47.540;19.088;2022-11-20T07:21:58;100110.25;;;3.32;77.44
75972;BME280;64651;47.540;19.088;2022-11-20T07:27:00;100116.66;;;3.26;77.24
75972;BME280;64651;47.540;19.088;2022-11-20T07:32:03;100135.78;;;3.31;78.38
75972;BME280;64651;47.540;19.088;2022-11-20T07:37:05;100135.66;;;3.49;79.35
75972;BME280;64651;47.540;19.088;2022-11-20T07:42:11;100149.37;;;3.43;79.91
75972;BME280;64651;47.540;19.088;2022-11-20T07:47:14;100144.75;;;3.43;80.25
75972;BME280;64651;47.540;19.088;2022-11-20T07:52:16;100149.59;;;3.53;80.94
75972;BME280;64651;47.540;19.088;2022-11-20T07:57:18;100137.88;;;3.64;81.76
75972;BME280;64651;47.540;19.088;2022-11-20T08:02:22;100150.59;;;3.75;81.16
75972;BME280;64651;47.540;19.088;2022-11-20T08:07:25;100142.16;;;3.88;80.24
75972;BME280;64651;47.540;19.088;2022-11-20T08:12:27;100133.22;;;4.04;79.97
75972;BME280;64651;47.540;19.088;2022-11-20T08:17:47;100115.28;;;4.20;80.08
75972;BME280;64651;47.540;19.088;2022-11-20T08:23:10;100128.19;;;4.41;78.90
75972;BME280;64651;47.540;19.088;2022-11-20T08:28:12;100122.66;;;4.36;77.99
75972;BME280;64651;47.540;19.088;2022-11-20T08:33:22;100122.41;;;4.55;77.49
75972;BME280;64651;47.540;19.088;2022-11-20T08:38:24;100116.06;;;4.49;78.56
75972;BME280;64651;47.540;19.088;2022-11-20T08:43:26;100116.22;;;4.59;78.45
75972;BME280;64651;47.540;19.088;2022-11-20T08:48:28;100131.09;;;4.85;77.84
75972;BME280;64651;47.540;19.088;2022-11-20T08:53:30;100142.81;;;4.69;77.19
75972;BME280;64651;47.540;19.088;2022-11-20T08:58:32;100130.19;;;4.63;77.81
75972;BME280;64651;47.540;19.088;2022-11-20T09:03:55;100128.25;;;4.97;77.17
75972;BME280;64651;47.540;19.088;2022-11-20T09:08:58;100140.81;;;4.98;75.86
75972;BME280;64651;47.540;19.088;2022-11-20T09:14:07;100151.75;;;4.81;74.80
75972;BME280;64651;47.540;19.088;2022-11-20T09:19:09;100161.69;;;4.59;75.19
75972;BME280;64651;47.540;19.088;2022-11-20T09:24:31;100161.63;;;4.70;75.92
75972;BME280;64651;47.540;19.088;2022-11-20T09:29:33;100170.00;;;4.80;76.01
75972;BME280;64651;47.540;19.088;2022-11-20T09:34:35;100160.16;;;4.79;76.24
75972;BME280;64651;47.540;19.088;2022-11-20T09:39:38;100154.53;;;4.86;75.78
75972;BME280;64651;47.540;19.088;2022-11-20T09:55:25;100134.75;;;5.51;73.32
75972;BME280;64651;47.540;19.088;2022-11-20T10:00:29;100117.00;;;5.70;73.01
75972;BME280;64651;47.540;19.088;2022-11-20T10:05:49;100125.53;;;5.95;72.18
75972;BME280;64651;47.540;19.088;2022-11-20T10:11:07;100121.22;;;6.04;71.74
75972;BME280;64651;47.540;19.088;2022-11-20T10:32:17;100078.94;;;7.65;64.29
75972;BME280;64651;47.540;19.088;2022-11-20T10:37:24;100076.25;;;10.01;57.37
75972;BME280;64651;47.540;19.088;2022-11-20T10:47:38;100070.44;;;12.05;50.09
75972;BME280;64651;47.540;19.088;2022-11-20T11:02:59;100075.22;;;14.25;43.71
75972;BME280;64651;47.540;19.088;2022-11-20T11:08:12;100074.66;;;14.00;43.39
75972;BME280;64651;47.540;19.088;2022-11-20T11:13:24;100084.13;;;13.58;44.04
75972;BME280;64651;47.540;19.088;2022-11-20T11:18:34;100093.91;;;11.07;51.28
75972;BME280;64651;47.540;19.088;2022-11-20T11:23:42;100090.09;;;9.02;56.76
75972;BME280;64651;47.540;19.088;2022-11-20T11:28:58;100095.28;;;8.98;58.41
75972;BME280;64651;47.540;19.088;2022-11-20T11:34:05;100087.63;;;8.54;58.27
75972;BME280;64651;47.540;19.088;2022-11-20T11:39:19;100099.81;;;9.58;56.15
75972;BME280;64651;47.540;19.088;2022-11-20T11:44:33;100085.31;;;10.80;52.18
75972;BME280;64651;47.540;19.088;2022-11-20T11:55:35;100069.81;;;8.72;57.63
75972;BME280;64651;47.540;19.088;2022-11-20T12:00:44;100068.25;;;7.63;62.04
75972;BME280;64651;47.540;19.088;2022-11-20T12:05:57;100059.88;;;7.28;63.41
75972;BME280;64651;47.540;19.088;2022-11-20T12:16:13;100058.00;;;7.39;64.54
75972;BME280;64651;47.540;19.088;2022-11-20T12:37:22;100054.13;;;7.24;65.52
75972;BME280;64651;47.540;19.088;2022-11-20T12:48:28;100040.09;;;7.06;66.36
75972;BME280;64651;47.540;19.088;2022-11-20T12:54:00;100052.38;;;6.61;67.64
75972;BME280;64651;47.540;19.088;2022-11-20T13:00:10;100043.97;;;6.36;68.58
75972;BME280;64651;47.540;19.088;2022-11-20T13:10:18;100057.28;;;6.27;69.63
75972;BME280;64651;47.540;19.088;2022-11-20T13:15:38;100061.50;;;6.40;69.03
75972;BME280;64651;47.540;19.088;2022-11-20T13:20:45;100059.72;;;6.56;68.67
75972;BME280;64651;47.540;19.088;2022-11-20T13:25:48;100063.28;;;6.98;67.17
75972;BME280;64651;47.540;19.088;2022-11-20T13:30:53;100063.53;;;7.44;65.61
75972;BME280;64651;47.540;19.088;2022-11-20T13:36:05;100053.84;;;7.26;66.11
75972;BME280;64651;47.540;19.088;2022-11-20T13:41:08;100041.19;;;7.10;66.97
75972;BME280;64651;47.540;19.088;2022-11-20T13:46:40;100039.31;;;6.68;68.47
75972;BME280;64651;47.540;19.088;2022-11-20T13:51:51;100034.81;;;6.52;69.54
75972;BME280;64651;47.540;19.088;2022-11-20T13:57:20;100027.78;;;6.66;70.14
75972;BME280;64651;47.540;19.088;2022-11-20T14:02:29;100036.44;;;6.53;70.05
75972;BME280;64651;47.540;19.088;2022-11-20T14:07:38;100029.78;;;6.39;70.62
75972;BME280;64651;47.540;19.088;2022-11-20T14:12:41;100020.34;;;6.20;71.35
75972;BME280;64651;47.540;19.088;2022-11-20T14:17:43;100014.16;;;5.97;72.21
75972;BME280;64651;47.540;19.088;2022-11-20T14:22:53;100015.59;;;5.83;72.87
75972;BME280;64651;47.540;19.088;2022-11-20T14:27:57;100029.16;;;5.73;73.47
75972;BME280;64651;47.540;19.088;2022-11-20T14:33:02;100033.94;;;5.61;73.98
75972;BME280;64651;47.540;19.088;2022-11-20T14:38:11;100027.72;;;6.19;72.40
75972;BME280;64651;47.540;19.088;2022-11-20T14:43:27;100039.44;;;5.66;73.79
75972;BME280;64651;47.540;19.088;2022-11-20T14:48:32;100056.12;;;5.26;75.63
75972;BME280;64651;47.540;19.088;2022-11-20T14:53:37;100061.75;;;4.98;77.00
75972;BME280;64651;47.540;19.088;2022-11-20T14:58:39;100047.66;;;4.84;77.51
75972;BME280;64651;47.540;19.088;2022-11-20T15:03:41;100051.50;;;4.66;78.41
75972;BME280;64651;47.540;19.088;2022-11-20T15:08:51;100058.69;;;4.39;79.54
75972;BME280;64651;47.540;19.088;2022-11-20T15:13:53;100058.19;;;4.25;80.21
75972;BME280;64651;47.540;19.088;2022-11-20T15:18:56;100064.25;;;3.99;81.34
75972;BME280;64651;47.540;19.088;2022-11-20T15:23:58;100066.72;;;3.84;82.24
75972;BME280;64651;47.540;19.088;2022-11-20T15:29:02;100063.50;;;3.87;82.40
75972;BME280;64651;47.540;19.088;2022-11-20T15:34:05;100063.31;;;3.77;82.80
75972;BME280;64651;47.540;19.088;2022-11-20T15:39:10;100077.06;;;3.70;83.21
75972;BME280;64651;47.540;19.088;2022-11-20T15:44:13;100067.16;;;3.64;83.28
75972;BME280;64651;47.540;19.088;2022-11-20T15:49:16;100080.97;;;3.62;83.59
75972;BME280;64651;47.540;19.088;2022-11-20T15:54:21;100088.94;;;3.52;84.02
75972;BME280;64651;47.540;19.088;2022-11-20T15:59:24;100080.28;;;3.55;84.40
75972;BME280;64651;47.540;19.088;2022-11-20T16:04:26;100078.06;;;3.52;84.58
75972;BME280;64651;47.540;19.088;2022-11-20T16:09:29;100073.78;;;3.56;84.41
75972;BME280;64651;47.540;19.088;2022-11-20T16:14:31;100086.22;;;3.52;84.92
75972;BME280;64651;47.540;19.088;2022-11-20T16:19:52;100079.91;;;3.63;84.24
75972;BME280;64651;47.540;19.088;2022-11-20T16:24:54;100078.25;;;3.62;84.22
75972;BME280;64651;47.540;19.088;2022-11-20T16:29:56;100067.72;;;3.66;84.38
75972;BME280;64651;47.540;19.088;2022-11-20T16:34:58;100065.50;;;3.63;84.72
75972;BME280;64651;47.540;19.088;2022-11-20T16:40:00;100069.38;;;3.67;84.69
75972;BME280;64651;47.540;19.088;2022-11-20T16:45:04;100072.91;;;3.67;84.64
75972;BME280;64651;47.540;19.088;2022-11-20T16:50:06;100066.50;;;3.74;84.25
75972;BME280;64651;47.540;19.088;2022-11-20T16:55:09;100057.97;;;3.53;84.86
75972;BME280;64651;47.540;19.088;2022-11-20T17:00:12;100044.00;;;3.21;86.10
75972;BME280;64651;47.540;19.088;2022-11-20T17:05:15;100052.53;;;3.02;87.12
75972;BME280;64651;47.540;19.088;2022-11-20T17:10:17;100056.19;;;2.96;87.52
75972;BME280;64651;47.540;19.088;2022-11-20T17:15:19;100048.41;;;2.64;88.59
75972;BME280;64651;47.540;19.088;2022-11-20T17:20:21;100043.72;;;2.48;89.50
75972;BME280;64651;47.540;19.088;2022-11-20T17:25:23;100037.91;;;2.33;90.26
75972;BME280;64651;47.540;19.088;2022-11-20T17:30:25;100020.44;;;2.17;90.85
75972;BME280;64651;47.540;19.088;2022-11-20T17:35:28;100018.31;;;2.19;91.34
75972;BME280;64651;47.540;19.088;2022-11-20T17:40:30;100026.66;;;1.94;91.82
75972;BME280;64651;47.540;19.088;2022-11-20T17:45:34;100025.22;;;1.92;92.19
75972;BME280;64651;47.540;19.088;2022-11-20T17:50:37;100009.63;;;1.76;92.69
75972;BME280;64651;47.540;19.088;2022-11-20T17:55:39;100002.78;;;1.85;93.08
75972;BME280;64651;47.540;19.088;2022-11-20T18:01:04;100005.88;;;1.88;93.23
75972;BME280;64651;47.540;19.088;2022-11-20T18:06:18;100005.69;;;1.72;93.48
75972;BME280;64651;47.540;19.088;2022-11-20T18:11:26;100006.53;;;1.72;93.70
75972;BME280;64651;47.540;19.088;2022-11-20T18:16:30;100016.94;;;1.75;93.86
75972;BME280;64651;47.540;19.088;2022-11-20T18:21:32;100026.72;;;1.76;94.00
75972;BME280;64651;47.540;19.088;2022-11-20T18:26:35;100046.47;;;1.65;94.38
75972;BME280;64651;47.540;19.088;2022-11-20T18:31:44;100052.75;;;1.47;94.58
75972;BME280;64651;47.540;19.088;2022-11-20T18:36:47;100052.97;;;1.34;94.62
75972;BME280;64651;47.540;19.088;2022-11-20T18:41:49;100055.56;;;1.22;95.01
75972;BME280;64651;47.540;19.088;2022-11-20T18:47:13;100070.41;;;1.38;94.73
75972;BME280;64651;47.540;19.088;2022-11-20T18:52:21;100081.47;;;1.18;95.10
75972;BME280;64651;47.540;19.088;2022-11-20T18:57:25;100089.84;;;1.65;93.69
75972;BME280;64651;47.540;19.088;2022-11-20T19:02:28;100079.78;;;1.54;93.60
75972;BME280;64651;47.540;19.088;2022-11-20T19:07:30;100082.84;;;1.46;94.09
75972;BME280;64651;47.540;19.088;2022-11-20T19:12:32;100077.31;;;1.52;93.56
75972;BME280;64651;47.540;19.088;2022-11-20T19:17:34;100080.91;;;1.65;93.18
75972;BME280;64651;47.540;19.088;2022-11-20T19:22:36;100064.34;;;1.84;92.68
75972;BME280;64651;47.540;19.088;2022-11-20T19:27:38;100086.19;;;1.59;92.64
75972;BME280;64651;47.540;19.088;2022-11-20T19:32:40;100081.53;;;1.48;92.38
75972;BME280;64651;47.540;19.088;2022-11-20T19:37:42;100082.66;;;1.41;92.77
75972;BME280;64651;47.540;19.088;2022-11-20T19:42:45;100077.56;;;1.33;93.93
75972;BME280;64651;47.540;19.088;2022-11-20T19:47:47;100063.78;;;1.16;94.96
75972;BME280;64651;47.540;19.088;2022-11-20T19:53:09;100073.81;;;0.97;95.54
75972;BME280;64651;47.540;19.088;2022-11-20T19:58:12;100061.00;;;0.86;95.85
75972;BME280;64651;47.540;19.088;2022-11-20T20:03:14;100065.44;;;0.80;95.91
75972;BME280;64651;47.540;19.088;2022-11-20T20:08:16;100062.16;;;0.78;96.05
75972;BME280;64651;47.540;19.088;2022-11-20T20:13:20;100058.97;;;0.81;96.18
75972;BME280;64651;47.540;19.088;2022-11-20T20:18:23;100045.66;;;0.80;96.38
75972;BME280;64651;47.540;19.088;2022-11-20T20:23:25;100029.56;;;1.21;96.30
75972;BME280;64651;47.540;19.088;2022-11-20T20:28:27;100019.09;;;1.07;96.56
75972;BME280;64651;47.540;19.088;2022-11-20T20:33:30;100031.00;;;1.06;96.71
75972;BME280;64651;47.540;19.088;2022-11-20T20:38:32;100034.16;;;1.21;96.36
75972;BME280;64651;47.540;19.088;2022-11-20T20:43:35;100019.31;;;1.23;96.31
75972;BME280;64651;47.540;19.088;2022-11-20T20:48:58;100023.97;;;1.16;96.26
75972;BME280;64651;47.540;19.088;2022-11-20T20:54:01;100037.59;;;0.92;96.54
75972;BME280;64651;47.540;19.088;2022-11-20T20:59:03;100026.03;;;0.85;96.79
75972;BME280;64651;47.540;19.088;2022-11-20T21:04:05;100036.06;;;0.84;97.02
75972;BME280;64651;47.540;19.088;2022-11-20T21:09:07;100026.19;;;0.71;97.37
75972;BME280;64651;47.540;19.088;2022-11-20T21:14:09;100021.81;;;0.89;97.32
75972;BME280;64651;47.540;19.088;2022-11-20T21:19:11;100028.81;;;0.96;97.22
75972;BME280;64651;47.540;19.088;2022-11-20T21:24:13;100030.16;;;0.87;97.32
75972;BME280;64651;47.540;19.088;2022-11-20T21:29:15;100037.84;;;0.72;97.54
75972;BME280;64651;47.540;19.088;2022-11-20T21:34:17;100027.22;;;0.70;97.56
75972;BME280;64651;47.540;19.088;2022-11-20T21:39:20;100039.19;;;0.63;97.49
75972;BME280;64651;47.540;19.088;2022-11-20T21:44:22;100038.47;;;0.49;97.61
75972;BME280;64651;47.540;19.088;2022-11-20T21:49:32;100041.56;;;0.53;97.52
75972;BME280;64651;47.540;19.088;2022-11-20T21:54:34;100049.84;;;0.58;97.57
75972;BME280;64651;47.540;19.088;2022-11-20T21:59:36;100047.63;;;0.91;97.11
75972;BME280;64651;47.540;19.088;2022-11-20T22:04:39;100026.25;;;1.01;96.71
75972;BME280;64651;47.540;19.088;2022-11-20T22:09:41;100027.53;;;0.99;96.78
75972;BME280;64651;47.540;19.088;2022-11-20T22:14:43;100029.59;;;0.85;96.68
75972;BME280;64651;47.540;19.088;2022-11-20T22:19:46;100028.56;;;0.79;96.82
75972;BME280;64651;47.540;19.088;2022-11-20T22:24:48;100022.19;;;0.92;96.57
75972;BME280;64651;47.540;19.088;2022-11-20T22:29:51;100014.59;;;0.82;96.48
75972;BME280;64651;47.540;19.088;2022-11-20T22:34:53;100012.12;;;0.81;96.41
75972;BME280;64651;47.540;19.088;2022-11-20T22:39:55;100004.75;;;0.70;96.37
75972;BME280;64651;47.540;19.088;2022-11-20T22:44:57;99983.09;;;0.52;96.52
75972;BME280;64651;47.540;19.088;2022-11-20T22:49:59;99983.84;;;0.59;96.57
75972;BME280;64651;47.540;19.088;2022-11-20T22:55:01;99971.50;;;0.45;96.72
75972;BME280;64651;47.540;19.088;2022-11-20T23:00:03;99980.84;;;0.49;96.98
75972;BME280;64651;47.540;19.088;2022-11-20T23:05:06;99975.25;;;0.44;97.19
75972;BME280;64651;47.540;19.088;2022-11-20T23:10:09;99974.50;;;0.36;97.41
75972;BME280;64651;47.540;19.088;2022-11-20T23:15:11;99973.34;;;0.26;97.54
75972;BME280;64651;47.540;19.088;2022-11-20T23:20:13;99967.62;;;0.16;97.70
75972;BME280;64651;47.540;19.088;2022-11-20T23:25:15;99952.75;;;0.25;97.83
75972;BME280;64651;47.540;19.088;2022-11-20T23:30:17;99949.06;;;0.19;97.84
75972;BME280;64651;47.540;19.088;2022-11-20T23:35:19;99960.88;;;0.43;97.75
75972;BME280;64651;47.540;19.088;2022-11-20T23:40:21;99970.31;;;0.40;96.81
75972;BME280;64651;47.540;19.088;2022-11-20T23:45:23;99957.88;;;0.33;96.25
75972;BME280;64651;47.540;19.088;2022-11-20T23:50:26;99962.44;;;-0.11;96.56
75972;BME280;64651;47.540;19.088;2022-11-20T23:55:28;99952.91;;;-0.38;96.73
